createdAt,value
2023-05-10T00:00:36.487Z,14.06
2023-05-10T00:01:36.641Z,14.06
2023-05-10T00:02:36.579Z,14.06
2023-05-10T00:03:36.546Z,14.06
2023-05-10T00:04:36.440Z,14.06
2023-05-10T00:05:36.425Z,14.07
2023-05-10T00:06:36.431Z,14.06
2023-05-10T00:07:36.395Z,14.06
2023-05-10T00:08:36.380Z,14.06
2023-05-10T00:09:36.377Z,14.03
2023-05-10T00:10:36.360Z,14.03
2023-05-10T00:11:36.343Z,14.03
2023-05-10T00:12:36.328Z,14.03
2023-05-10T00:13:36.320Z,14.03
2023-05-10T00:14:36.300Z,14.06
2023-05-10T00:15:36.300Z,14.03
2023-05-10T00:16:36.338Z,14.03
2023-05-10T00:17:36.315Z,14.03
2023-05-10T00:18:36.246Z,14.03
2023-05-10T00:19:36.254Z,14.06
2023-05-10T00:20:36.215Z,14.01
2023-05-10T00:21:36.207Z,14.03
2023-05-10T00:22:36.223Z,14.01
2023-05-10T00:23:36.179Z,14.03
2023-05-10T00:24:36.165Z,14.03
2023-05-10T00:25:36.154Z,14.01
2023-05-10T00:26:36.143Z,14.01
2023-05-10T00:27:36.139Z,14.03
2023-05-10T00:28:36.122Z,14.01
2023-05-10T00:29:36.100Z,14.01
2023-05-10T00:30:36.101Z,14.01
2023-05-10T00:31:36.101Z,14.00
2023-05-10T00:32:36.146Z,14.00
2023-05-10T00:33:36.048Z,14.00
2023-05-10T00:34:36.045Z,14.01
2023-05-10T00:35:36.018Z,14.00
2023-05-10T00:36:36.008Z,14.01
2023-05-10T00:37:35.993Z,14.00
2023-05-10T00:38:36.005Z,14.00
2023-05-10T00:39:35.964Z,14.01
2023-05-10T00:40:35.948Z,14.01
2023-05-10T00:41:35.938Z,14.00
2023-05-10T00:42:35.922Z,13.98
2023-05-10T00:43:35.911Z,14.00
2023-05-10T00:44:35.896Z,14.00
2023-05-10T00:45:35.884Z,14.00
2023-05-10T00:46:35.906Z,14.00
2023-05-10T00:47:35.914Z,13.98
2023-05-10T00:48:35.843Z,13.98
2023-05-10T00:49:35.829Z,14.00
2023-05-10T00:50:35.825Z,14.00
2023-05-10T00:51:35.806Z,13.98
2023-05-10T00:52:35.794Z,14.00
2023-05-10T00:53:35.778Z,14.00
2023-05-10T00:54:35.787Z,13.98
2023-05-10T00:55:35.753Z,13.98
2023-05-10T00:56:35.742Z,13.98
2023-05-10T00:57:35.729Z,14.00
2023-05-10T00:58:35.711Z,13.98
2023-05-10T00:59:35.697Z,13.98
2023-05-10T01:00:35.686Z,13.98
2023-05-10T01:01:35.679Z,13.98
2023-05-10T01:02:35.762Z,13.98
2023-05-10T01:03:35.700Z,13.98
2023-05-10T01:04:35.658Z,13.98
2023-05-10T01:05:35.637Z,13.98
2023-05-10T01:06:35.602Z,13.98
2023-05-10T01:07:35.598Z,13.98
2023-05-10T01:08:35.579Z,13.97
2023-05-10T01:09:35.567Z,13.98
2023-05-10T01:10:35.579Z,13.97
2023-05-10T01:11:35.545Z,13.97
2023-05-10T01:12:35.561Z,13.97
2023-05-10T01:13:35.522Z,13.97
2023-05-10T01:14:35.505Z,13.97
2023-05-10T01:15:35.541Z,13.97
2023-05-10T01:16:35.512Z,13.95
2023-05-10T01:17:35.485Z,13.97
2023-05-10T01:18:35.456Z,13.95
2023-05-10T01:19:35.434Z,13.95
2023-05-10T01:20:35.423Z,13.97
2023-05-10T01:21:35.412Z,13.97
2023-05-10T01:22:35.397Z,13.95
2023-05-10T01:23:35.384Z,13.95
2023-05-10T01:24:35.369Z,13.97
2023-05-10T01:25:35.361Z,13.95
2023-05-10T01:26:35.368Z,13.95
2023-05-10T01:27:35.330Z,13.97
2023-05-10T01:28:35.331Z,13.97
2023-05-10T01:29:35.303Z,13.95
2023-05-10T01:30:35.288Z,13.95
2023-05-10T01:31:35.349Z,13.95
2023-05-10T01:32:35.302Z,13.95
2023-05-10T01:33:35.249Z,13.95
2023-05-10T01:34:35.237Z,13.94
2023-05-10T01:35:35.223Z,13.95
2023-05-10T01:36:41.220Z,13.94
2023-05-10T01:37:35.196Z,13.95
2023-05-10T01:38:35.192Z,13.94
2023-05-10T01:39:35.174Z,13.94
2023-05-10T01:40:35.162Z,13.95
2023-05-10T01:41:35.140Z,13.94
2023-05-10T01:42:35.249Z,13.95
2023-05-10T01:43:35.113Z,13.93
2023-05-10T01:44:35.098Z,13.94
2023-05-10T01:45:35.089Z,13.94
2023-05-10T01:46:35.099Z,13.94
2023-05-10T01:47:35.083Z,13.94
2023-05-10T01:48:35.044Z,13.95
2023-05-10T01:49:35.039Z,13.94
2023-05-10T01:50:35.016Z,13.94
2023-05-10T01:51:35.006Z,13.93
2023-05-10T01:52:34.989Z,13.94
2023-05-10T01:53:34.980Z,13.93
2023-05-10T01:54:34.982Z,13.94
2023-05-10T01:55:34.958Z,13.94
2023-05-10T01:56:34.939Z,13.94
2023-05-10T01:57:34.945Z,13.94
2023-05-10T01:58:34.944Z,13.94
2023-05-10T01:59:34.902Z,13.94
2023-05-10T02:00:34.909Z,13.93
2023-05-10T02:01:34.873Z,13.91
2023-05-10T02:02:34.905Z,13.93
2023-05-10T02:03:34.914Z,13.93
2023-05-10T02:04:34.833Z,13.93
2023-05-10T02:05:34.820Z,13.93
2023-05-10T02:06:34.806Z,13.91
2023-05-10T02:07:34.794Z,13.91
2023-05-10T02:08:34.785Z,13.91
2023-05-10T02:09:34.770Z,13.93
2023-05-10T02:10:34.763Z,13.91
2023-05-10T02:11:34.738Z,13.91
2023-05-10T02:12:34.725Z,13.93
2023-05-10T02:13:34.711Z,13.91
2023-05-10T02:14:34.721Z,13.91
2023-05-10T02:15:34.692Z,13.93
2023-05-10T02:16:34.791Z,13.91
2023-05-10T02:17:34.695Z,13.90
2023-05-10T02:18:34.661Z,13.91
2023-05-10T02:19:34.634Z,13.91
2023-05-10T02:20:34.630Z,13.90
2023-05-10T02:21:34.607Z,13.91
2023-05-10T02:22:34.591Z,13.90
2023-05-10T02:23:34.581Z,13.90
2023-05-10T02:24:34.571Z,13.91
2023-05-10T02:25:34.556Z,13.91
2023-05-10T02:26:34.539Z,13.90
2023-05-10T02:27:34.541Z,13.91
2023-05-10T02:28:34.537Z,13.88
2023-05-10T02:29:34.535Z,13.88
2023-05-10T02:30:34.559Z,13.90
2023-05-10T02:31:34.603Z,13.91
2023-05-10T02:32:34.487Z,13.88
2023-05-10T02:33:34.474Z,13.88
2023-05-10T02:34:34.433Z,13.88
2023-05-10T02:35:34.429Z,13.88
2023-05-10T02:36:34.425Z,13.90
2023-05-10T02:37:34.394Z,13.88
2023-05-10T02:38:34.384Z,13.90
2023-05-10T02:39:34.364Z,13.87
2023-05-10T02:40:34.374Z,13.90
2023-05-10T02:41:34.348Z,13.90
2023-05-10T02:42:34.334Z,13.88
2023-05-10T02:43:34.329Z,13.88
2023-05-10T02:44:34.304Z,13.88
2023-05-10T02:45:34.289Z,13.88
2023-05-10T02:46:34.346Z,13.87
2023-05-10T02:47:34.287Z,13.88
2023-05-10T02:48:34.249Z,13.88
2023-05-10T02:49:34.234Z,13.88
2023-05-10T02:50:34.224Z,13.88
2023-05-10T02:51:34.209Z,13.88
2023-05-10T02:52:34.194Z,13.88
2023-05-10T02:53:34.181Z,13.88
2023-05-10T02:54:34.169Z,13.88
2023-05-10T02:55:34.169Z,13.88
2023-05-10T02:56:34.142Z,13.87
2023-05-10T02:57:34.128Z,13.87
2023-05-10T02:58:34.114Z,13.87
2023-05-10T02:59:34.101Z,13.87
2023-05-10T03:00:34.092Z,13.88
2023-05-10T03:01:34.115Z,13.87
2023-05-10T03:02:34.170Z,13.87
2023-05-10T03:03:34.050Z,13.87
2023-05-10T03:04:34.104Z,13.87
2023-05-10T03:05:34.022Z,13.87
2023-05-10T03:06:34.037Z,13.87
2023-05-10T03:07:33.997Z,13.87
2023-05-10T03:08:34.002Z,13.87
2023-05-10T03:09:33.971Z,13.87
2023-05-10T03:10:33.971Z,13.87
2023-05-10T03:11:33.947Z,13.86
2023-05-10T03:12:33.937Z,13.87
2023-05-10T03:13:33.993Z,13.86
2023-05-10T03:14:33.912Z,13.86
2023-05-10T03:15:33.895Z,13.86
2023-05-10T03:16:33.918Z,13.86
2023-05-10T03:17:33.903Z,13.83
2023-05-10T03:18:33.874Z,13.83
2023-05-10T03:19:33.842Z,13.83
2023-05-10T03:20:33.825Z,13.86
2023-05-10T03:21:33.808Z,13.86
2023-05-10T03:22:33.801Z,13.86
2023-05-10T03:23:33.780Z,13.83
2023-05-10T03:24:33.772Z,13.86
2023-05-10T03:25:33.753Z,13.86
2023-05-10T03:26:33.756Z,13.86
2023-05-10T03:27:33.728Z,13.83
2023-05-10T03:28:33.731Z,13.83
2023-05-10T03:29:33.700Z,13.83
2023-05-10T03:30:33.703Z,13.86
2023-05-10T03:31:33.787Z,13.83
2023-05-10T03:32:33.733Z,13.83
2023-05-10T03:33:33.652Z,13.83
2023-05-10T03:34:33.662Z,13.86
2023-05-10T03:35:33.621Z,13.82
2023-05-10T03:36:33.610Z,13.83
2023-05-10T03:37:33.593Z,13.82
2023-05-10T03:38:33.579Z,13.82
2023-05-10T03:39:33.572Z,13.83
2023-05-10T03:40:33.555Z,13.83
2023-05-10T03:41:33.550Z,13.82
2023-05-10T03:42:33.532Z,13.82
2023-05-10T03:43:33.513Z,13.83
2023-05-10T03:44:33.513Z,13.82
2023-05-10T03:45:33.486Z,13.82
2023-05-10T03:46:33.517Z,13.82
2023-05-10T03:47:33.466Z,13.82
2023-05-10T03:48:33.457Z,13.82
2023-05-10T03:49:33.432Z,13.83
2023-05-10T03:50:33.451Z,13.80
2023-05-10T03:51:33.404Z,13.82
2023-05-10T03:52:33.394Z,13.82
2023-05-10T03:53:33.381Z,13.82
2023-05-10T03:54:33.368Z,13.80
2023-05-10T03:55:33.357Z,13.82
2023-05-10T03:56:33.342Z,13.82
2023-05-10T03:57:33.334Z,13.82
2023-05-10T03:58:33.316Z,13.82
2023-05-10T03:59:33.317Z,13.82
2023-05-10T04:00:33.286Z,13.82
2023-05-10T04:01:33.293Z,13.82
2023-05-10T04:02:33.344Z,13.80
2023-05-10T04:03:33.327Z,13.80
2023-05-10T04:04:33.231Z,13.82
2023-05-10T04:05:33.222Z,13.80
2023-05-10T04:06:33.277Z,13.79
2023-05-10T04:07:33.215Z,13.80
2023-05-10T04:08:33.178Z,13.80
2023-05-10T04:09:33.164Z,13.78
2023-05-10T04:10:33.163Z,13.80
2023-05-10T04:11:33.138Z,13.79
2023-05-10T04:12:33.136Z,13.79
2023-05-10T04:13:33.111Z,13.80
2023-05-10T04:14:39.109Z,13.79
2023-05-10T04:15:33.084Z,13.76
2023-05-10T04:16:33.109Z,13.79
2023-05-10T04:17:33.089Z,13.78
2023-05-10T04:18:33.082Z,13.78
2023-05-10T04:19:33.060Z,13.78
2023-05-10T04:20:33.026Z,13.78
2023-05-10T04:21:33.005Z,13.78
2023-05-10T04:22:33.041Z,13.78
2023-05-10T04:23:32.973Z,13.78
2023-05-10T04:24:32.964Z,13.78
2023-05-10T04:25:32.949Z,13.78
2023-05-10T04:26:32.947Z,13.78
2023-05-10T04:27:32.921Z,13.78
2023-05-10T04:28:32.913Z,13.79
2023-05-10T04:29:32.896Z,13.79
2023-05-10T04:30:32.907Z,13.78
2023-05-10T04:31:32.870Z,13.79
2023-05-10T04:32:32.887Z,13.78
2023-05-10T04:33:32.841Z,13.79
2023-05-10T04:34:32.828Z,13.78
2023-05-10T04:35:32.816Z,13.79
2023-05-10T04:36:32.802Z,13.79
2023-05-10T04:37:38.828Z,13.79
2023-05-10T04:38:32.775Z,13.79
2023-05-10T04:39:32.762Z,13.79
2023-05-10T04:40:32.750Z,13.79
2023-05-10T04:41:32.733Z,13.79
2023-05-10T04:42:32.724Z,13.79
2023-05-10T04:43:32.706Z,13.79
2023-05-10T04:44:32.696Z,13.79
2023-05-10T04:45:32.677Z,13.79
2023-05-10T04:46:32.700Z,13.79
2023-05-10T04:47:32.682Z,13.78
2023-05-10T04:48:32.647Z,13.79
2023-05-10T04:49:32.626Z,13.78
2023-05-10T04:50:32.616Z,13.79
2023-05-10T04:51:32.612Z,13.79
2023-05-10T04:52:32.592Z,13.79
2023-05-10T04:53:32.608Z,13.79
2023-05-10T04:54:32.563Z,13.79
2023-05-10T04:55:32.544Z,13.78
2023-05-10T04:56:32.537Z,13.79
2023-05-10T04:57:32.520Z,13.78
2023-05-10T04:58:32.506Z,13.78
2023-05-10T04:59:32.496Z,13.78
2023-05-10T05:00:32.478Z,13.78
2023-05-10T05:01:32.534Z,13.79
2023-05-10T05:02:32.524Z,13.79
2023-05-10T05:03:32.520Z,13.79
2023-05-10T05:04:32.432Z,13.79
2023-05-10T05:05:32.408Z,13.79
2023-05-10T05:06:32.402Z,13.79
2023-05-10T05:07:32.386Z,13.80
2023-05-10T05:08:32.381Z,13.79
2023-05-10T05:09:32.390Z,13.79
2023-05-10T05:10:32.356Z,13.79
2023-05-10T05:11:32.331Z,13.79
2023-05-10T05:12:32.322Z,13.79
2023-05-10T05:13:32.373Z,13.79
2023-05-10T05:14:32.302Z,13.79
2023-05-10T05:15:32.280Z,13.79
2023-05-10T05:16:32.344Z,13.79
2023-05-10T05:17:32.298Z,13.79
2023-05-10T05:18:32.250Z,13.79
2023-05-10T05:19:32.228Z,13.79
2023-05-10T05:20:32.217Z,13.78
2023-05-10T05:21:32.202Z,13.79
2023-05-10T05:22:32.190Z,13.79
2023-05-10T05:23:32.187Z,13.80
2023-05-10T05:24:32.162Z,13.79
2023-05-10T05:25:32.172Z,13.79
2023-05-10T05:26:32.139Z,13.80
2023-05-10T05:27:32.121Z,13.79
2023-05-10T05:28:32.112Z,13.79
2023-05-10T05:29:32.098Z,13.80
2023-05-10T05:30:32.083Z,13.79
2023-05-10T05:31:32.114Z,13.79
2023-05-10T05:32:32.076Z,13.79
2023-05-10T05:33:32.040Z,13.79
2023-05-10T05:34:32.032Z,13.79
2023-05-10T05:35:32.019Z,13.80
2023-05-10T05:36:32.006Z,13.79
2023-05-10T05:37:31.989Z,13.80
2023-05-10T05:38:31.996Z,13.79
2023-05-10T05:39:31.981Z,13.80
2023-05-10T05:40:31.950Z,13.80
2023-05-10T05:41:31.965Z,13.80
2023-05-10T05:42:31.932Z,13.82
2023-05-10T05:43:31.906Z,13.80
2023-05-10T05:44:31.902Z,13.82
2023-05-10T05:45:31.909Z,13.80
2023-05-10T05:46:31.866Z,13.83
2023-05-10T05:47:31.879Z,13.82
2023-05-10T05:48:31.846Z,13.82
2023-05-10T05:49:31.834Z,13.82
2023-05-10T05:50:31.815Z,13.82
2023-05-10T05:51:31.802Z,13.80
2023-05-10T05:52:31.797Z,13.82
2023-05-10T05:53:31.776Z,13.82
2023-05-10T05:54:31.765Z,13.82
2023-05-10T05:55:31.750Z,13.83
2023-05-10T05:56:31.748Z,13.82
2023-05-10T05:57:31.757Z,13.82
2023-05-10T05:58:31.717Z,13.82
2023-05-10T05:59:31.694Z,13.80
2023-05-10T06:00:31.684Z,13.82
2023-05-10T06:01:31.678Z,13.82
2023-05-10T06:02:31.780Z,13.82
2023-05-10T06:03:31.840Z,13.82
2023-05-10T06:04:31.692Z,13.83
2023-05-10T06:05:31.623Z,13.83
2023-05-10T06:06:31.606Z,13.82
2023-05-10T06:07:31.595Z,13.82
2023-05-10T06:08:31.585Z,13.83
2023-05-10T06:09:31.562Z,13.82
2023-05-10T06:10:31.585Z,13.82
2023-05-10T06:11:31.538Z,13.82
2023-05-10T06:12:31.521Z,13.82
2023-05-10T06:13:31.580Z,13.82
2023-05-10T06:14:31.498Z,13.83
2023-05-10T06:15:31.484Z,13.82
2023-05-10T06:16:31.483Z,13.82
2023-05-10T06:17:31.482Z,13.82
2023-05-10T06:18:31.449Z,13.82
2023-05-10T06:19:31.430Z,13.82
2023-05-10T06:20:31.424Z,13.83
2023-05-10T06:21:31.403Z,13.83
2023-05-10T06:22:31.393Z,13.83
2023-05-10T06:23:37.383Z,13.82
2023-05-10T06:24:31.368Z,13.83
2023-05-10T06:25:31.357Z,13.79
2023-05-10T06:26:31.343Z,13.79
2023-05-10T06:27:31.326Z,13.80
2023-05-10T06:28:31.317Z,13.80
2023-05-10T06:29:31.343Z,13.79
2023-05-10T06:30:31.288Z,13.79
2023-05-10T06:31:31.292Z,13.79
2023-05-10T06:32:31.305Z,13.80
2023-05-10T06:33:31.247Z,13.78
2023-05-10T06:34:31.233Z,13.79
2023-05-10T06:35:31.219Z,13.78
2023-05-10T06:36:31.206Z,13.76
2023-05-10T06:37:31.206Z,13.75
2023-05-10T06:38:31.178Z,13.73
2023-05-10T06:39:31.165Z,13.73
2023-05-10T06:40:31.156Z,13.72
2023-05-10T06:41:31.141Z,13.73
2023-05-10T06:42:31.128Z,13.73
2023-05-10T06:43:31.117Z,13.76
2023-05-10T06:44:31.103Z,13.75
2023-05-10T06:45:31.131Z,13.73
2023-05-10T06:46:31.097Z,13.75
2023-05-10T06:47:31.101Z,13.73
2023-05-10T06:48:31.054Z,13.78
2023-05-10T06:49:31.033Z,13.76
2023-05-10T06:50:31.017Z,13.79
2023-05-10T06:51:31.003Z,13.80
2023-05-10T06:52:30.991Z,13.79
2023-05-10T06:53:30.986Z,13.82
2023-05-10T06:54:30.984Z,13.80
2023-05-10T06:55:30.958Z,13.80
2023-05-10T06:56:30.938Z,13.79
2023-05-10T06:57:32.261Z,13.80
2023-05-10T06:58:30.918Z,13.80
2023-05-10T06:59:30.959Z,13.80
2023-05-10T07:00:30.907Z,13.80
2023-05-10T07:01:30.940Z,13.80
2023-05-10T07:02:30.882Z,13.82
2023-05-10T07:03:30.845Z,13.83
2023-05-10T07:04:30.868Z,13.82
2023-05-10T07:05:30.871Z,13.82
2023-05-10T07:06:33.748Z,13.82
2023-05-10T07:07:30.796Z,13.83
2023-05-10T07:08:30.778Z,13.83
2023-05-10T07:09:30.765Z,13.83
2023-05-10T07:10:30.751Z,13.83
2023-05-10T07:11:30.742Z,13.83
2023-05-10T07:12:30.744Z,13.86
2023-05-10T07:13:30.747Z,13.87
2023-05-10T07:14:30.698Z,13.87
2023-05-10T07:15:30.693Z,13.88
2023-05-10T07:16:30.706Z,13.88
2023-05-10T07:17:30.846Z,13.90
2023-05-10T07:18:30.694Z,13.91
2023-05-10T07:19:30.640Z,13.90
2023-05-10T07:20:30.619Z,13.91
2023-05-10T07:21:30.677Z,13.94
2023-05-10T07:22:30.590Z,13.93
2023-05-10T07:23:30.589Z,13.94
2023-05-10T07:24:30.566Z,13.95
2023-05-10T07:25:30.557Z,13.94
2023-05-10T07:26:30.538Z,13.95
2023-05-10T07:27:30.533Z,13.95
2023-05-10T07:28:30.512Z,13.95
2023-05-10T07:29:30.502Z,13.95
2023-05-10T07:30:30.592Z,13.94
2023-05-10T07:31:30.542Z,13.97
2023-05-10T07:32:30.562Z,13.95
2023-05-10T07:33:30.482Z,13.95
2023-05-10T07:34:30.432Z,13.95
2023-05-10T07:35:30.415Z,13.95
2023-05-10T07:36:30.404Z,13.94
2023-05-10T07:37:30.392Z,13.93
2023-05-10T07:38:30.375Z,13.94
2023-05-10T07:39:30.363Z,13.94
2023-05-10T07:40:30.348Z,13.93
2023-05-10T07:41:30.334Z,13.93
2023-05-10T07:42:30.327Z,13.94
2023-05-10T07:43:30.329Z,13.93
2023-05-10T07:44:30.300Z,13.93
2023-05-10T07:45:30.293Z,13.93
2023-05-10T07:46:30.383Z,13.93
2023-05-10T07:47:30.271Z,13.94
2023-05-10T07:48:30.235Z,13.93
2023-05-10T07:49:30.266Z,13.93
2023-05-10T07:50:30.223Z,13.94
2023-05-10T07:51:30.200Z,13.95
2023-05-10T07:52:30.185Z,13.94
2023-05-10T07:53:30.174Z,13.95
2023-05-10T07:54:30.162Z,13.95
2023-05-10T07:55:30.151Z,13.97
2023-05-10T07:56:30.158Z,13.97
2023-05-10T07:57:30.121Z,13.95
2023-05-10T07:58:30.103Z,13.97
2023-05-10T07:59:30.100Z,13.95
2023-05-10T08:00:30.079Z,13.95
2023-05-10T08:01:30.067Z,13.95
2023-05-10T08:02:30.110Z,13.95
2023-05-10T08:03:30.176Z,13.95
2023-05-10T08:04:30.057Z,13.95
2023-05-10T08:05:30.038Z,13.97
2023-05-10T08:06:30.005Z,13.98
2023-05-10T08:07:29.995Z,13.98
2023-05-10T08:08:29.970Z,13.98
2023-05-10T08:09:29.959Z,13.98
2023-05-10T08:10:29.949Z,13.97
2023-05-10T08:11:29.936Z,13.98
2023-05-10T08:12:29.935Z,14.00
2023-05-10T08:13:29.910Z,14.01
2023-05-10T08:14:29.890Z,14.00
2023-05-10T08:15:29.878Z,14.00
2023-05-10T08:16:30.055Z,14.01
2023-05-10T08:17:29.886Z,14.01
2023-05-10T08:18:29.856Z,14.01
2023-05-10T08:19:29.832Z,14.01
2023-05-10T08:20:29.848Z,14.01
2023-05-10T08:21:29.863Z,14.01
2023-05-10T08:22:29.792Z,14.00
2023-05-10T08:23:29.776Z,14.00
2023-05-10T08:24:29.763Z,14.00
2023-05-10T08:25:29.749Z,14.01
2023-05-10T08:26:29.740Z,14.01
2023-05-10T08:27:29.724Z,14.00
2023-05-10T08:28:29.709Z,13.98
2023-05-10T08:29:32.873Z,14.01
2023-05-10T08:30:30.721Z,14.00
2023-05-10T08:31:29.790Z,14.00
2023-05-10T08:32:29.681Z,13.98
2023-05-10T08:33:29.673Z,13.98
2023-05-10T08:34:29.629Z,13.98
2023-05-10T08:35:29.616Z,13.98
2023-05-10T08:36:29.601Z,13.98
2023-05-10T08:37:29.619Z,13.98
2023-05-10T08:38:29.572Z,13.98
2023-05-10T08:39:30.931Z,13.98
2023-05-10T08:40:29.550Z,13.98
2023-05-10T08:41:29.541Z,13.98
2023-05-10T08:42:29.526Z,13.98
2023-05-10T08:43:29.581Z,13.97
2023-05-10T08:44:29.496Z,13.97
2023-05-10T08:45:29.500Z,13.98
2023-05-10T08:46:29.533Z,14.00
2023-05-10T08:47:29.501Z,14.00
2023-05-10T08:48:29.445Z,14.00
2023-05-10T08:49:29.434Z,14.01
2023-05-10T08:50:29.422Z,14.03
2023-05-10T08:51:29.408Z,14.03
2023-05-10T08:52:29.405Z,14.01
2023-05-10T08:53:29.412Z,14.00
2023-05-10T08:54:29.367Z,14.00
2023-05-10T08:55:29.356Z,14.00
2023-05-10T08:56:29.351Z,14.00
2023-05-10T08:57:29.333Z,14.01
2023-05-10T08:58:29.331Z,14.00
2023-05-10T08:59:29.309Z,14.00
2023-05-10T09:00:29.287Z,14.01
2023-05-10T09:01:29.386Z,14.01
2023-05-10T09:02:29.316Z,14.03
2023-05-10T09:03:29.254Z,14.03
2023-05-10T09:04:29.386Z,14.06
2023-05-10T09:05:29.275Z,14.06
2023-05-10T09:06:29.217Z,14.07
2023-05-10T09:07:29.200Z,14.07
2023-05-10T09:08:29.187Z,14.09
2023-05-10T09:09:29.211Z,14.09
2023-05-10T09:10:29.182Z,14.10
2023-05-10T09:11:35.154Z,14.12
2023-05-10T09:12:29.134Z,14.12
2023-05-10T09:13:29.121Z,14.13
2023-05-10T09:14:29.105Z,14.10
2023-05-10T09:15:29.108Z,14.13
2023-05-10T09:16:29.107Z,14.13
2023-05-10T09:17:29.152Z,14.12
2023-05-10T09:18:29.088Z,14.13
2023-05-10T09:19:29.048Z,14.14
2023-05-10T09:20:29.035Z,14.14
2023-05-10T09:21:29.014Z,14.13
2023-05-10T09:22:29.003Z,14.14
2023-05-10T09:23:28.990Z,14.14
2023-05-10T09:24:28.972Z,14.16
2023-05-10T09:25:29.089Z,14.17
2023-05-10T09:26:28.946Z,14.16
2023-05-10T09:27:28.941Z,14.19
2023-05-10T09:28:28.921Z,14.17
2023-05-10T09:29:28.916Z,14.19
2023-05-10T09:30:28.892Z,14.20
2023-05-10T09:31:29.007Z,14.21
2023-05-10T09:32:28.880Z,14.24
2023-05-10T09:33:28.859Z,14.24
2023-05-10T09:34:28.847Z,14.24
2023-05-10T09:35:29.831Z,14.24
2023-05-10T09:36:28.821Z,14.21
2023-05-10T09:37:28.798Z,14.20
2023-05-10T09:38:28.791Z,14.20
2023-05-10T09:39:28.779Z,14.21
2023-05-10T09:40:28.767Z,14.21
2023-05-10T09:41:28.779Z,14.20
2023-05-10T09:42:28.735Z,14.20
2023-05-10T09:43:28.730Z,14.21
2023-05-10T09:44:28.704Z,14.25
2023-05-10T09:45:28.705Z,14.27
2023-05-10T09:46:28.717Z,14.27
2023-05-10T09:47:28.709Z,14.27
2023-05-10T09:48:28.662Z,14.29
2023-05-10T09:49:28.641Z,14.31
2023-05-10T09:50:28.624Z,14.31
2023-05-10T09:51:28.616Z,14.32
2023-05-10T09:52:28.602Z,14.32
2023-05-10T09:53:28.589Z,14.34
2023-05-10T09:54:28.575Z,14.29
2023-05-10T09:55:28.563Z,14.31
2023-05-10T09:56:28.552Z,14.29
2023-05-10T09:57:28.570Z,14.28
2023-05-10T09:58:28.521Z,14.31
2023-05-10T09:59:28.525Z,14.32
2023-05-10T10:00:28.496Z,14.31
2023-05-10T10:01:28.524Z,14.32
2023-05-10T10:02:28.503Z,14.32
2023-05-10T10:03:30.333Z,14.34
2023-05-10T10:04:28.509Z,14.32
2023-05-10T10:05:28.429Z,14.35
2023-05-10T10:06:30.448Z,14.37
2023-05-10T10:07:28.418Z,14.37
2023-05-10T10:08:28.390Z,14.38
2023-05-10T10:09:28.377Z,14.38
2023-05-10T10:10:28.381Z,14.42
2023-05-10T10:11:28.352Z,14.42
2023-05-10T10:12:28.341Z,14.43
2023-05-10T10:13:28.354Z,14.43
2023-05-10T10:14:28.314Z,14.44
2023-05-10T10:15:28.313Z,14.47
2023-05-10T10:16:28.407Z,14.50
2023-05-10T10:17:28.353Z,14.53
2023-05-10T10:18:28.412Z,14.52
2023-05-10T10:19:28.253Z,14.52
2023-05-10T10:20:28.233Z,14.56
2023-05-10T10:21:28.223Z,14.60
2023-05-10T10:22:28.205Z,14.57
2023-05-10T10:23:28.279Z,14.56
2023-05-10T10:24:28.183Z,14.56
2023-05-10T10:25:28.183Z,14.56
2023-05-10T10:26:28.160Z,14.56
2023-05-10T10:27:34.147Z,14.54
2023-05-10T10:28:28.468Z,14.53
2023-05-10T10:29:28.140Z,14.53
2023-05-10T10:30:28.101Z,14.53
2023-05-10T10:31:28.150Z,14.53
2023-05-10T10:32:28.156Z,14.52
2023-05-10T10:33:59.066Z,14.50
2023-05-10T10:34:59.064Z,14.49
2023-05-10T10:35:59.084Z,14.50
2023-05-10T10:36:59.024Z,14.49
2023-05-10T10:37:59.022Z,14.46
2023-05-10T10:38:58.996Z,14.46
2023-05-10T10:39:58.995Z,14.47
2023-05-10T10:40:58.977Z,14.50
2023-05-10T10:41:58.955Z,14.53
2023-05-10T10:42:58.940Z,14.57
2023-05-10T10:43:58.930Z,14.57
2023-05-10T10:44:58.948Z,14.60
2023-05-10T10:45:58.902Z,14.56
2023-05-10T10:46:58.934Z,14.54
2023-05-10T10:47:58.920Z,14.54
2023-05-10T10:48:58.863Z,14.54
2023-05-10T10:49:58.864Z,14.54
2023-05-10T10:50:58.848Z,14.53
2023-05-10T10:51:58.824Z,14.50
2023-05-10T10:52:58.843Z,14.49
2023-05-10T10:53:58.797Z,14.46
2023-05-10T10:54:58.812Z,14.46
2023-05-10T10:55:58.772Z,14.46
2023-05-10T10:56:58.759Z,14.44
2023-05-10T10:57:58.745Z,14.44
2023-05-10T10:58:58.726Z,14.44
2023-05-10T10:59:58.715Z,14.44
2023-05-10T11:00:58.756Z,14.43
2023-05-10T11:01:58.692Z,14.42
2023-05-10T11:02:58.700Z,14.42
2023-05-10T11:03:58.667Z,14.42
2023-05-10T11:04:58.654Z,14.42
2023-05-10T11:05:58.638Z,14.43
2023-05-10T11:06:58.625Z,14.46
2023-05-10T11:07:58.623Z,14.44
2023-05-10T11:08:58.600Z,14.49
2023-05-10T11:09:58.587Z,14.53
2023-05-10T11:10:58.571Z,14.56
2023-05-10T11:11:58.563Z,14.60
2023-05-10T11:12:58.543Z,14.60
2023-05-10T11:13:58.529Z,14.57
2023-05-10T11:14:58.533Z,14.60
2023-05-10T11:15:58.509Z,14.60
2023-05-10T11:16:58.562Z,14.60
2023-05-10T11:17:58.521Z,14.60
2023-05-10T11:19:01.556Z,14.60
2023-05-10T11:19:58.450Z,14.61
2023-05-10T11:20:58.438Z,14.61
2023-05-10T11:21:58.422Z,14.65
2023-05-10T11:22:58.414Z,14.61
2023-05-10T11:23:58.464Z,14.62
2023-05-10T11:24:58.383Z,14.64
2023-05-10T11:25:58.384Z,14.65
2023-05-10T11:26:58.357Z,14.68
2023-05-10T11:27:58.342Z,14.69
2023-05-10T11:28:58.331Z,14.69
2023-05-10T11:29:58.316Z,14.74
2023-05-10T11:30:58.337Z,14.75
2023-05-10T11:31:58.288Z,14.80
2023-05-10T11:32:58.374Z,14.79
2023-05-10T11:33:58.269Z,14.80
2023-05-10T11:34:58.254Z,14.80
2023-05-10T11:35:58.239Z,14.82
2023-05-10T11:36:58.236Z,14.82
2023-05-10T11:37:58.210Z,14.79
2023-05-10T11:38:58.206Z,14.77
2023-05-10T11:39:58.185Z,14.75
2023-05-10T11:40:58.174Z,14.79
2023-05-10T11:41:58.186Z,14.80
2023-05-10T11:42:58.148Z,14.83
2023-05-10T11:43:58.136Z,14.86
2023-05-10T11:44:58.122Z,14.90
2023-05-10T11:45:58.166Z,14.93
2023-05-10T11:46:58.097Z,14.94
2023-05-10T11:47:58.103Z,14.97
2023-05-10T11:48:58.110Z,14.89
2023-05-10T11:49:58.060Z,14.87
2023-05-10T11:50:58.111Z,14.87
2023-05-10T11:51:58.027Z,14.89
2023-05-10T11:52:58.021Z,14.89
2023-05-10T11:53:58.258Z,14.89
2023-05-10T11:54:57.990Z,14.89
2023-05-10T11:55:57.986Z,14.86
2023-05-10T11:56:57.965Z,14.85
2023-05-10T11:57:57.947Z,14.86
2023-05-10T11:58:58.058Z,14.89
2023-05-10T11:59:57.920Z,14.90
2023-05-10T12:00:57.911Z,14.89
2023-05-10T12:01:57.919Z,14.93
2023-05-10T12:02:57.972Z,14.94
2023-05-10T12:03:58.156Z,14.94
2023-05-10T12:04:57.984Z,14.97
2023-05-10T12:05:57.842Z,14.98
2023-05-10T12:06:57.864Z,15.00
2023-05-10T12:07:57.839Z,15.00
2023-05-10T12:08:57.807Z,15.00
2023-05-10T12:09:57.785Z,14.97
2023-05-10T12:10:57.776Z,14.97
2023-05-10T12:11:57.773Z,14.94
2023-05-10T12:12:57.749Z,14.97
2023-05-10T12:13:57.855Z,15.02
2023-05-10T12:14:57.724Z,15.01
2023-05-10T12:15:57.786Z,15.01
2023-05-10T12:16:57.698Z,14.98
2023-05-10T12:17:57.727Z,15.00
2023-05-10T12:18:57.761Z,15.01
2023-05-10T12:19:57.663Z,15.02
2023-05-10T12:20:57.664Z,15.04
2023-05-10T12:21:57.630Z,15.07
2023-05-10T12:22:59.735Z,15.04
2023-05-10T12:23:57.606Z,15.01
2023-05-10T12:24:57.590Z,15.02
2023-05-10T12:25:57.576Z,15.01
2023-05-10T12:26:57.569Z,15.04
2023-05-10T12:27:57.575Z,15.05
2023-05-10T12:28:57.544Z,15.05
2023-05-10T12:29:57.530Z,15.04
2023-05-10T12:30:57.517Z,15.07
2023-05-10T12:31:57.554Z,15.05
2023-05-10T12:32:57.541Z,15.02
2023-05-10T12:33:57.479Z,15.02
2023-05-10T12:34:57.460Z,15.01
2023-05-10T12:35:57.446Z,14.98
2023-05-10T12:36:57.467Z,15.00
2023-05-10T12:37:57.422Z,15.00
2023-05-10T12:38:57.409Z,15.01
2023-05-10T12:39:57.399Z,15.01
2023-05-10T12:40:57.411Z,15.02
2023-05-10T12:41:57.370Z,15.05
2023-05-10T12:42:57.406Z,15.05
2023-05-10T12:43:57.341Z,15.05
2023-05-10T12:44:57.331Z,15.07
2023-05-10T12:45:57.372Z,15.02
2023-05-10T12:46:57.302Z,15.02
2023-05-10T12:47:57.305Z,15.04
2023-05-10T12:49:07.693Z,15.05
2023-05-10T12:49:57.264Z,15.04
2023-05-10T12:50:57.252Z,15.05
2023-05-10T12:51:57.235Z,15.04
2023-05-10T12:52:57.252Z,15.02